Time;durP1;ratioP1;P1;durP2;ratioP2;P2;SDS_P1;SDS_P2;PMS_P1;PMS_P2;Temp;Humidity;BMP_temperature;BMP_pressure;BME280_temperature;BME280_humidity;BME280_pressure;Samples;Min_cycle;Max_cycle;Signal;HPM_P1;HPM_P2
2021/12/22 00:02:31;;;;;;;3.13;1.05;;;27.10;41.40;;;;;;5027026;28;20279;-58
2021/12/22 00:05:01;;;;;;;2.72;1.20;;;27.10;41.50;;;;;;5027580;28;20687;-59
2021/12/22 00:07:32;;;;;;;2.90;1.55;;;27.10;41.50;;;;;;5028007;28;20244;-59
2021/12/22 00:10:02;;;;;;;2.72;1.40;;;27.20;41.60;;;;;;5028105;28;20290;-58
2021/12/22 00:12:34;;;;;;;2.80;1.30;;;27.20;41.50;;;;;;5027134;28;20232;-59
2021/12/22 00:15:05;;;;;;;1.95;1.15;;;27.20;41.40;;;;;;5027833;28;20831;-58
2021/12/22 00:17:36;;;;;;;2.78;1.08;;;27.20;41.40;;;;;;5026907;28;20307;-58
2021/12/22 00:20:07;;;;;;;3.28;1.40;;;27.30;42.10;;;;;;5029337;28;20235;-52
2021/12/22 00:22:38;;;;;;;3.63;1.48;;;27.30;41.50;;;;;;5027789;28;20740;-52
2021/12/22 00:25:08;;;;;;;3.58;1.58;;;27.30;41.50;;;;;;5023698;28;20314;-58
2021/12/22 00:27:41;;;;;;;3.03;1.40;;;27.40;41.40;;;;;;5025617;28;20259;-58
2021/12/22 00:30:13;;;;;;;3.33;1.67;;;27.40;41.40;;;;;;5026208;28;20841;-55
2021/12/22 00:32:50;;;;;;;2.38;1.30;;;27.40;41.40;;;;;;5022124;28;20537;-56
2021/12/22 00:35:21;;;;;;;3.85;1.23;;;27.40;41.30;;;;;;5015713;28;20227;-58
2021/12/22 00:37:52;;;;;;;3.33;1.40;;;27.50;41.30;;;;;;5027520;28;20216;-58
2021/12/22 00:40:22;;;;;;;4.32;1.42;;;27.50;41.20;;;;;;5027690;28;20279;-56
2021/12/22 00:42:55;;;;;;;2.90;1.27;;;27.50;41.10;;;;;;5029009;28;20271;-59
2021/12/22 00:45:28;;;;;;;3.17;1.30;;;27.50;41.10;;;;;;5027933;28;20307;-59
2021/12/22 00:47:58;;;;;;;3.17;1.38;;;27.50;41.00;;;;;;5013350;28;20227;-58
2021/12/22 00:50:29;;;;;;;3.10;1.40;;;27.60;40.90;;;;;;5024996;28;20243;-59
2021/12/22 00:52:59;;;;;;;2.90;1.15;;;27.50;40.90;;;;;;5027021;28;20295;-59
2021/12/22 00:55:30;;;;;;;3.60;1.67;;;27.60;41.20;;;;;;5023375;28;20226;-58
2021/12/22 00:58:03;;;;;;;4.75;1.80;;;27.60;41.20;;;;;;5014790;28;20687;-59
2021/12/22 01:00:34;;;;;;;3.65;1.65;;;27.60;41.20;;;;;;5026993;28;22038;-57
2021/12/22 01:03:05;;;;;;;4.10;1.48;;;27.60;41.30;;;;;;5026147;28;20280;-58
2021/12/22 01:05:36;;;;;;;3.67;1.20;;;27.70;41.20;;;;;;5029206;28;20318;-58
2021/12/22 01:08:06;;;;;;;3.60;1.40;;;27.70;41.20;;;;;;5028102;28;20303;-56
2021/12/22 01:10:37;;;;;;;6.03;1.63;;;27.70;41.10;;;;;;5016941;28;20732;-52
2021/12/22 01:13:10;;;;;;;5.93;1.83;;;27.70;40.50;;;;;;5011661;28;20288;-52
2021/12/22 01:15:41;;;;;;;8.50;1.67;;;27.80;39.20;;;;;;5020925;28;20207;-55
2021/12/22 01:18:15;;;;;;;4.00;1.30;;;27.70;38.90;;;;;;5020825;28;20212;-57
2021/12/22 01:21:02;;;;;;;4.95;1.40;;;27.70;38.40;;;;;;5013363;28;20197;-53
2021/12/22 01:23:37;;;;;;;3.30;1.10;;;27.70;38.20;;;;;;5016783;28;20273;-58
2021/12/22 01:26:08;;;;;;;5.45;1.60;;;27.70;38.10;;;;;;5024231;28;20227;-59
2021/12/22 01:28:43;;;;;;;5.22;1.23;;;27.70;38.00;;;;;;5011177;28;20225;-55
2021/12/22 01:31:16;;;;;;;5.35;1.20;;;27.70;38.10;;;;;;5010530;28;20204;-53
2021/12/22 01:33:47;;;;;;;4.63;1.50;;;27.70;38.10;;;;;;5028254;28;20679;-57
2021/12/22 01:36:17;;;;;;;5.10;1.63;;;27.60;38.20;;;;;;5011988;28;20283;-55
2021/12/22 01:38:48;;;;;;;4.47;1.50;;;27.60;37.90;;;;;;5024280;28;20344;-58
2021/12/22 01:41:18;;;;;;;7.40;1.65;;;27.60;37.90;;;;;;5029938;28;20214;-54
2021/12/22 01:43:51;;;;;;;4.75;1.60;;;27.60;38.00;;;;;;5024475;28;20383;-45
2021/12/22 01:49:19;;;;;;;6.20;1.90;;;27.60;37.50;;;;;;4973020;28;20314;-45
2021/12/22 01:51:55;;;;;;;6.53;1.60;;;27.60;37.30;;;;;;5026551;28;20283;-45
2021/12/22 01:54:35;;;;;;;7.70;2.22;;;27.60;37.80;;;;;;5018019;28;20231;-48
2021/12/22 01:57:10;;;;;;;4.78;1.50;;;27.60;37.30;;;;;;5030919;28;20298;-47
2021/12/22 01:59:44;;;;;;;6.05;1.58;;;27.60;37.50;;;;;;5014866;28;20200;-50
2021/12/22 02:02:16;;;;;;;6.10;1.45;;;27.50;37.40;;;;;;5031863;28;20282;-41
2021/12/22 02:04:47;;;;;;;4.18;1.52;;;27.50;37.00;;;;;;5030755;28;20224;-48
2021/12/22 02:07:18;;;;;;;4.28;1.48;;;27.50;36.90;;;;;;5015275;28;20267;-50
2021/12/22 02:12:36;;;;;;;5.07;1.75;;;27.50;37.20;;;;;;5023153;28;20243;-56
2021/12/22 02:15:10;;;;;;;4.10;1.30;;;27.60;37.00;;;;;;5029791;28;20245;-58
2021/12/22 02:17:41;;;;;;;3.65;1.48;;;27.50;36.90;;;;;;5028548;28;20307;-58
2021/12/22 02:20:14;;;;;;;3.60;1.10;;;27.60;37.00;;;;;;5028811;28;20262;-54
2021/12/22 02:22:45;;;;;;;6.25;1.70;;;27.60;37.00;;;;;;5029919;28;20232;-56
2021/12/22 02:25:20;;;;;;;6.32;1.40;;;27.60;36.90;;;;;;5030314;28;20664;-57
2021/12/22 02:27:54;;;;;;;4.47;1.60;;;27.60;36.70;;;;;;5016885;28;20204;-59
2021/12/22 02:30:27;;;;;;;4.18;1.30;;;27.60;36.30;;;;;;5013454;28;20207;-59
2021/12/22 02:36:08;;;;;;;4.57;1.63;;;27.60;36.60;;;;;;4968296;28;20216;-55
2021/12/22 02:38:41;;;;;;;7.75;1.85;;;27.60;36.60;;;;;;5029246;28;20255;-58
2021/12/22 02:41:14;;;;;;;5.65;1.48;;;27.60;36.70;;;;;;5018620;28;20283;-59
2021/12/22 02:43:48;;;;;;;5.95;1.35;;;27.60;36.90;;;;;;5027180;28;20204;-59
2021/12/22 02:46:20;;;;;;;6.00;1.80;;;27.60;37.10;;;;;;5029421;28;20251;-60
2021/12/22 02:48:53;;;;;;;7.65;1.40;;;27.60;37.40;;;;;;5028724;28;20299;-59
2021/12/22 02:51:27;;;;;;;5.57;1.70;;;27.70;37.50;;;;;;5025144;28;20197;-58
2021/12/22 02:54:07;;;;;;;6.15;1.90;;;27.70;37.40;;;;;;5016943;28;20199;-58
2021/12/22 02:56:51;;;;;;;4.82;1.55;;;27.70;37.40;;;;;;5028784;28;20332;-58
2021/12/22 03:02:20;;;;;;;4.10;1.48;;;27.70;37.50;;;;;;5013795;28;20207;-58
2021/12/22 03:04:56;;;;;;;2.78;1.25;;;27.70;37.60;;;;;;5018693;28;20227;-54
2021/12/22 03:07:30;;;;;;;6.25;2.05;;;27.80;37.70;;;;;;5031166;28;20247;-58
2021/12/22 03:10:03;;;;;;;5.50;1.75;;;27.80;38.50;;;;;;5015494;28;20227;-58
2021/12/22 03:12:36;;;;;;;3.53;1.27;;;27.80;37.70;;;;;;5031029;28;20303;-58
2021/12/22 03:15:08;;;;;;;4.28;1.27;;;27.80;37.60;;;;;;5023229;28;20279;-46
2021/12/22 03:17:40;;;;;;;3.83;1.13;;;27.80;37.60;;;;;;5028781;28;20307;-46
2021/12/22 03:20:16;;;;;;;6.10;1.75;;;27.80;37.60;;;;;;5034201;28;20287;-58
2021/12/22 03:22:48;;;;;;;7.18;1.67;;;27.90;37.70;;;;;;5033759;28;20575;-59
2021/12/22 03:25:21;;;;;;;7.90;1.60;;;27.90;37.60;;;;;;5030303;28;20646;-46
2021/12/22 03:27:53;;;;;;;5.28;1.50;;;27.90;37.70;;;;;;5032417;28;20626;-39
2021/12/22 03:30:26;;;;;;;3.38;1.20;;;27.90;37.80;;;;;;5042707;28;20295;-43
2021/12/22 03:32:56;;;;;;;2.55;1.27;;;27.90;37.80;;;;;;5033459;28;20283;-39
2021/12/22 03:35:27;;;;;;;4.50;1.50;;;28.00;37.80;;;;;;5030263;28;20399;-54
2021/12/22 03:38:01;;;;;;;5.80;1.63;;;28.00;37.80;;;;;;5029132;28;20319;-40
2021/12/22 03:40:31;;;;;;;3.53;1.30;;;28.00;37.70;;;;;;5044103;28;20274;-45
2021/12/22 03:43:02;;;;;;;5.60;1.63;;;28.00;37.60;;;;;;5034203;28;20650;-55
2021/12/22 03:45:33;;;;;;;3.53;1.02;;;28.10;37.60;;;;;;5045416;28;21236;-58
2021/12/22 03:48:03;;;;;;;4.03;1.27;;;28.10;37.50;;;;;;5036633;28;20306;-57
2021/12/22 03:50:33;;;;;;;3.85;1.30;;;28.10;37.50;;;;;;5038596;28;20258;-59
2021/12/22 03:53:06;;;;;;;9.15;1.90;;;28.10;37.40;;;;;;5036580;28;20286;-48
2021/12/22 03:55:36;;;;;;;5.18;1.33;;;28.10;37.40;;;;;;5029549;28;20236;-53
2021/12/22 03:58:07;;;;;;;4.53;1.15;;;28.10;37.40;;;;;;5031000;28;20350;-53
2021/12/22 04:00:38;;;;;;;2.05;1.02;;;28.10;37.20;;;;;;5044688;28;20227;-56
2021/12/22 04:03:15;;;;;;;5.32;1.27;;;28.10;37.00;;;;;;5029547;28;20239;-54
2021/12/22 04:05:46;;;;;;;5.28;1.23;;;28.10;37.10;;;;;;5043074;28;20219;-50
2021/12/22 04:08:18;;;;;;;4.78;1.30;;;28.10;36.90;;;;;;5031172;28;20244;-53
2021/12/22 04:10:49;;;;;;;3.70;1.10;;;28.20;37.00;;;;;;5028869;28;20291;-55
2021/12/22 04:13:20;;;;;;;3.47;1.10;;;28.20;36.90;;;;;;5029218;28;20282;-54
2021/12/22 04:15:51;;;;;;;5.40;1.30;;;28.20;36.80;;;;;;5027697;28;20287;-57
2021/12/22 04:18:22;;;;;;;2.97;1.20;;;28.20;36.70;;;;;;5028574;28;20660;-58
2021/12/22 04:20:53;;;;;;;3.10;1.48;;;28.20;36.50;;;;;;5040397;28;20188;-53
2021/12/22 04:23:25;;;;;;;7.35;1.40;;;28.20;36.50;;;;;;5035211;28;20641;-59
2021/12/22 04:25:56;;;;;;;1.83;0.75;;;28.20;36.40;;;;;;5026696;28;20224;-55
2021/12/22 04:28:26;;;;;;;2.50;0.98;;;28.20;36.30;;;;;;5030575;28;20306;-58
2021/12/22 04:30:57;;;;;;;5.28;1.27;;;28.20;36.30;;;;;;5029696;28;20283;-58
2021/12/22 04:33:28;;;;;;;5.22;1.42;;;28.20;36.30;;;;;;5036870;28;20223;-57
2021/12/22 04:35:58;;;;;;;3.15;1.10;;;28.30;36.40;;;;;;5027140;28;20290;-58
2021/12/22 04:38:30;;;;;;;3.15;1.00;;;28.30;36.40;;;;;;5031614;28;20640;-55
2021/12/22 04:41:01;;;;;;;2.90;1.02;;;28.30;36.30;;;;;;5043838;28;20197;-54
2021/12/22 04:43:35;;;;;;;3.22;1.00;;;28.30;36.10;;;;;;5027603;28;20289;-54
2021/12/22 04:46:05;;;;;;;4.10;1.42;;;28.30;36.10;;;;;;5029675;28;20887;-57
2021/12/22 04:48:36;;;;;;;4.25;1.13;;;28.30;36.10;;;;;;5043674;28;20251;-57
2021/12/22 04:51:13;;;;;;;3.40;1.20;;;28.30;36.00;;;;;;5044392;28;20577;-58
2021/12/22 04:53:52;;;;;;;2.88;1.00;;;28.40;36.10;;;;;;5041266;28;20207;-55
2021/12/22 04:56:23;;;;;;;3.35;1.30;;;28.30;36.20;;;;;;5026700;28;20536;-55
2021/12/22 04:58:53;;;;;;;5.00;1.27;;;28.40;36.30;;;;;;5028712;28;20283;-58
2021/12/22 05:01:24;;;;;;;2.80;1.20;;;28.40;36.50;;;;;;5026883;28;20296;-57
2021/12/22 05:03:56;;;;;;;6.15;1.42;;;28.40;36.60;;;;;;5034938;28;20286;-56
2021/12/22 05:06:27;;;;;;;4.07;1.45;;;28.40;36.60;;;;;;5029166;28;20224;-55
2021/12/22 05:08:59;;;;;;;3.22;1.02;;;28.40;36.70;;;;;;5040204;28;20756;-54
2021/12/22 05:11:30;;;;;;;9.18;1.15;;;28.40;36.80;;;;;;5029410;28;20772;-57
2021/12/22 05:14:02;;;;;;;2.45;1.02;;;28.50;37.00;;;;;;5023425;28;20214;-57
2021/12/22 05:16:33;;;;;;;3.75;0.95;;;28.50;37.10;;;;;;5027108;28;20552;-58
2021/12/22 05:19:14;;;;;;;3.97;1.25;;;28.50;37.40;;;;;;5036429;28;20198;-55
2021/12/22 05:21:45;;;;;;;2.53;1.08;;;28.60;37.30;;;;;;5042908;28;20212;-54
2021/12/22 05:24:18;;;;;;;9.45;1.40;;;28.60;37.20;;;;;;5027831;28;20283;-39
2021/12/22 05:26:48;;;;;;;5.40;1.40;;;28.60;37.10;;;;;;5033856;28;20231;-49
2021/12/22 05:29:19;;;;;;;4.90;1.25;;;28.60;37.20;;;;;;5029091;28;20286;-53
2021/12/22 05:31:53;;;;;;;6.88;2.30;;;28.60;37.30;;;;;;5027481;28;20295;-58
2021/12/22 05:34:24;;;;;;;5.03;1.58;;;28.60;37.30;;;;;;5032891;28;20779;-58
2021/12/22 05:36:55;;;;;;;5.90;1.95;;;28.60;37.40;;;;;;5045180;28;20759;-58
2021/12/22 05:39:27;;;;;;;5.97;1.85;;;28.60;37.60;;;;;;5028669;28;20196;-48
2021/12/22 05:41:57;;;;;;;4.80;1.77;;;28.70;37.80;;;;;;5030738;28;20283;-54
2021/12/22 05:44:28;;;;;;;7.22;2.10;;;28.70;37.90;;;;;;5031446;28;20200;-46
2021/12/22 05:46:58;;;;;;;6.95;2.15;;;28.70;38.10;;;;;;5029190;28;20248;-54
2021/12/22 05:49:29;;;;;;;6.75;2.20;;;28.70;38.10;;;;;;5026446;28;20280;-57
2021/12/22 05:51:59;;;;;;;3.88;1.90;;;28.80;38.10;;;;;;5038779;28;20283;-57
2021/12/22 05:54:31;;;;;;;5.38;1.50;;;28.80;38.00;;;;;;5032593;28;20295;-56
2021/12/22 05:57:02;;;;;;;4.97;1.83;;;28.80;38.10;;;;;;5035545;28;20306;-55
2021/12/22 05:59:33;;;;;;;4.53;1.70;;;28.90;38.00;;;;;;5026453;28;20287;-52
2021/12/22 06:02:03;;;;;;;3.97;1.42;;;28.90;38.00;;;;;;5030019;28;20287;-57
2021/12/22 06:04:33;;;;;;;4.03;1.75;;;29.00;38.10;;;;;;5030156;28;20282;-57
2021/12/22 06:07:04;;;;;;;4.55;1.40;;;29.00;38.10;;;;;;5036221;28;20731;-58
2021/12/22 06:09:36;;;;;;;4.53;1.58;;;29.00;38.10;;;;;;5028062;28;20295;-57
2021/12/22 06:12:07;;;;;;;3.97;1.75;;;29.10;38.20;;;;;;5031383;28;20238;-57
2021/12/22 06:14:38;;;;;;;4.78;1.70;;;29.10;38.30;;;;;;5040838;28;20294;-53
2021/12/22 06:17:08;;;;;;;4.30;1.58;;;29.20;38.40;;;;;;5028308;28;20321;-58
2021/12/22 06:19:39;;;;;;;5.38;1.42;;;29.20;38.50;;;;;;5034163;28;20312;-56
2021/12/22 06:22:09;;;;;;;2.38;1.25;;;29.20;38.50;;;;;;5028858;28;20227;-56
2021/12/22 06:24:42;;;;;;;2.33;1.20;;;29.20;38.50;;;;;;5027302;28;20279;-58
2021/12/22 06:27:12;;;;;;;3.47;1.75;;;29.30;38.60;;;;;;5032131;28;20721;-52
2021/12/22 06:29:42;;;;;;;2.85;1.50;;;29.30;38.60;;;;;;5035313;28;20450;-56
2021/12/22 06:32:13;;;;;;;3.63;1.48;;;29.40;38.60;;;;;;5033815;28;20323;-58
2021/12/22 06:34:43;;;;;;;3.75;1.52;;;29.40;38.60;;;;;;5032341;28;20256;-51
2021/12/22 06:37:15;;;;;;;1.70;1.00;;;29.40;38.50;;;;;;5031324;28;20307;-57
2021/12/22 06:39:48;;;;;;;2.28;1.30;;;29.50;38.60;;;;;;5031412;28;20274;-59
2021/12/22 06:42:19;;;;;;;4.20;1.17;;;29.50;38.50;;;;;;5040820;28;20283;-57
2021/12/22 06:44:49;;;;;;;3.67;0.95;;;29.50;38.50;;;;;;5033939;28;20287;-58
2021/12/22 06:47:20;;;;;;;2.63;0.95;;;29.60;38.40;;;;;;5034210;28;20266;-55
2021/12/22 06:49:50;;;;;;;3.75;1.08;;;29.60;38.40;;;;;;5032467;28;20303;-58
2021/12/22 06:52:21;;;;;;;3.67;0.93;;;29.60;38.40;;;;;;5035513;28;20247;-56
2021/12/22 06:54:53;;;;;;;2.20;0.98;;;29.60;38.20;;;;;;5029459;28;20283;-55
2021/12/22 06:57:24;;;;;;;2.33;0.80;;;29.60;38.20;;;;;;5039326;28;20774;-52
2021/12/22 06:59:54;;;;;;;4.00;1.20;;;29.70;38.30;;;;;;5030559;28;20240;-54
2021/12/22 07:02:25;;;;;;;1.33;0.65;;;29.70;38.40;;;;;;5029192;28;20295;-56
2021/12/22 07:04:56;;;;;;;2.30;0.90;;;29.70;38.30;;;;;;5043033;28;20808;-55
2021/12/22 07:07:26;;;;;;;1.60;0.80;;;29.70;38.30;;;;;;5031272;28;20224;-55
2021/12/22 07:09:59;;;;;;;1.85;1.10;;;29.70;38.30;;;;;;5031501;28;20277;-54
2021/12/22 07:12:30;;;;;;;1.33;0.60;;;29.70;38.30;;;;;;5031166;28;20372;-54
2021/12/22 07:18:22;;;;;;;1.42;0.85;;;29.80;38.30;;;;;;5031878;28;20215;-57
2021/12/22 07:20:53;;;;;;;1.85;0.70;;;29.80;38.30;;;;;;5036977;28;20291;-56
2021/12/22 07:23:23;;;;;;;1.13;0.70;;;29.80;38.20;;;;;;5037190;28;20279;-58
2021/12/22 07:25:56;;;;;;;2.03;1.00;;;29.80;38.30;;;;;;5039394;28;20191;-59
2021/12/22 07:28:26;;;;;;;1.88;0.98;;;29.80;38.20;;;;;;5044995;28;20379;-58
2021/12/22 07:30:57;;;;;;;1.55;0.85;;;29.80;38.20;;;;;;5044372;28;20647;-58
2021/12/22 07:33:27;;;;;;;1.25;0.80;;;29.80;38.30;;;;;;5038197;28;20193;-57
2021/12/22 07:36:02;;;;;;;1.38;0.70;;;29.80;38.40;;;;;;5041297;28;20191;-55
2021/12/22 07:38:37;;;;;;;1.33;0.50;;;29.80;38.30;;;;;;5031175;28;20262;-54
2021/12/22 07:41:11;;;;;;;1.63;0.75;;;29.80;38.30;;;;;;5030470;28;20294;-59
2021/12/22 07:43:42;;;;;;;1.30;0.73;;;29.80;38.30;;;;;;5029709;28;20286;-57
2021/12/22 07:46:13;;;;;;;1.52;0.75;;;29.80;38.20;;;;;;5038548;28;20734;-59
2021/12/22 07:48:43;;;;;;;1.27;0.95;;;29.80;38.20;;;;;;5034425;28;20303;-55
2021/12/22 07:51:14;;;;;;;1.23;0.52;;;29.70;38.20;;;;;;5040013;28;20642;-52
2021/12/22 07:53:44;;;;;;;1.02;0.57;;;29.70;38.20;;;;;;5030594;28;20296;-57
2021/12/22 07:56:17;;;;;;;1.63;0.70;;;29.70;38.20;;;;;;5028309;28;20287;-59
2021/12/22 07:58:47;;;;;;;0.90;0.60;;;29.70;38.20;;;;;;5044331;28;20219;-46
2021/12/22 08:01:18;;;;;;;1.98;0.70;;;29.60;38.10;;;;;;5029105;28;20287;-53
2021/12/22 08:03:48;;;;;;;0.95;0.60;;;29.70;38.20;;;;;;5031228;28;20283;-54
2021/12/22 08:06:19;;;;;;;1.33;0.80;;;29.60;38.20;;;;;;5033912;28;20274;-56
2021/12/22 08:08:49;;;;;;;0.90;0.70;;;29.60;38.30;;;;;;5036185;28;20311;-58
2021/12/22 08:11:22;;;;;;;0.80;0.60;;;29.60;38.30;;;;;;5032015;28;20204;-54
2021/12/22 08:13:52;;;;;;;1.58;0.60;;;29.60;38.30;;;;;;5040265;28;20239;-58
2021/12/22 08:16:23;;;;;;;1.05;0.60;;;29.50;38.30;;;;;;5028439;28;20291;-55
2021/12/22 08:18:53;;;;;;;2.13;0.80;;;29.50;38.30;;;;;;5045060;28;20307;-59
2021/12/22 08:21:24;;;;;;;1.40;0.60;;;29.50;38.30;;;;;;5029040;28;20288;-59
2021/12/22 08:23:54;;;;;;;0.98;0.80;;;29.40;38.30;;;;;;5028735;28;20223;-54
2021/12/22 08:26:27;;;;;;;1.30;0.60;;;29.40;38.90;;;;;;5029956;28;20283;-53
2021/12/22 08:28:57;;;;;;;3.22;0.80;;;29.40;38.30;;;;;;5038391;28;20225;-55
2021/12/22 08:31:28;;;;;;;0.88;0.60;;;29.40;38.30;;;;;;5035484;28;20728;-60
2021/12/22 08:33:58;;;;;;;3.33;0.70;;;29.40;38.40;;;;;;5028626;28;20650;-51
2021/12/22 08:39:16;;;;;;;1.15;0.55;;;29.30;38.30;;;;;;5030596;28;20532;-56
2021/12/22 08:41:49;;;;;;;2.22;0.70;;;29.30;38.30;;;;;;5042759;28;20239;-57
2021/12/22 08:44:21;;;;;;;0.73;0.50;;;29.20;38.30;;;;;;5028807;28;20683;-54
2021/12/22 08:46:55;;;;;;;1.77;0.70;;;29.20;38.30;;;;;;5028272;28;20691;-56
2021/12/22 08:49:25;;;;;;;1.20;0.68;;;29.20;38.30;;;;;;5043603;28;20219;-51
2021/12/22 08:51:56;;;;;;;1.10;0.60;;;29.20;38.40;;;;;;5042118;28;20725;-59
2021/12/22 08:54:26;;;;;;;0.95;0.70;;;29.10;38.40;;;;;;5033185;28;20204;-59
2021/12/22 08:56:59;;;;;;;1.42;0.60;;;29.10;38.40;;;;;;5032217;28;20311;-50
2021/12/22 08:59:30;;;;;;;1.65;0.70;;;29.00;38.40;;;;;;5036457;28;20319;-56
2021/12/22 09:02:01;;;;;;;1.98;0.50;;;29.00;38.50;;;;;;5028767;28;20227;-59
2021/12/22 09:04:31;;;;;;;0.93;0.50;;;29.00;38.50;;;;;;5028966;28;20829;-54
2021/12/22 09:07:02;;;;;;;1.65;0.68;;;29.00;38.60;;;;;;5027043;28;20824;-56
2021/12/22 09:09:32;;;;;;;0.60;0.47;;;28.90;38.60;;;;;;5028543;28;20223;-55
2021/12/22 09:12:05;;;;;;;0.65;0.30;;;28.90;38.70;;;;;;5041970;28;20302;-59
2021/12/22 09:14:35;;;;;;;0.75;0.60;;;28.90;38.70;;;;;;5041735;28;20231;-58
2021/12/22 09:17:07;;;;;;;0.88;0.60;;;28.90;38.80;;;;;;5037056;28;20219;-59
2021/12/22 09:19:37;;;;;;;0.65;0.50;;;28.80;38.70;;;;;;5035040;28;20319;-58
2021/12/22 09:22:08;;;;;;;1.85;0.60;;;28.80;38.80;;;;;;5032734;28;20235;-58
2021/12/22 09:24:38;;;;;;;1.40;0.70;;;28.80;38.90;;;;;;5038836;28;20249;-58
2021/12/22 09:27:11;;;;;;;0.82;0.40;;;28.80;38.90;;;;;;5026883;28;20918;-39
2021/12/22 09:29:42;;;;;;;1.38;0.47;;;28.80;39.00;;;;;;5028039;28;20295;-39
2021/12/22 09:32:15;;;;;;;1.90;0.50;;;28.70;39.10;;;;;;5030042;28;20238;-41
2021/12/22 09:34:45;;;;;;;1.15;0.60;;;28.70;39.00;;;;;;5037535;28;20187;-39
2021/12/22 09:37:16;;;;;;;3.25;0.55;;;28.70;39.00;;;;;;5030919;28;20315;-39
2021/12/22 09:39:47;;;;;;;1.05;0.50;;;28.60;39.00;;;;;;5037534;28;20294;-46
2021/12/22 09:42:19;;;;;;;2.08;0.60;;;28.60;39.00;;;;;;5034843;28;20718;-57
2021/12/22 09:44:50;;;;;;;1.75;0.60;;;28.60;39.10;;;;;;5033070;28;20291;-45
2021/12/22 09:47:28;;;;;;;1.63;0.60;;;28.60;39.10;;;;;;5033799;28;20229;-54
2021/12/22 09:50:11;;;;;;;1.55;0.43;;;28.50;39.00;;;;;;5032267;28;20192;-48
2021/12/22 09:52:42;;;;;;;1.70;0.50;;;28.50;39.10;;;;;;5029716;28;20467;-40
2021/12/22 09:55:13;;;;;;;0.60;0.50;;;28.40;39.00;;;;;;5027469;28;20283;-40
2021/12/22 09:57:46;;;;;;;1.38;0.60;;;28.40;39.10;;;;;;5026386;28;20299;-43
2021/12/22 10:00:17;;;;;;;1.90;0.52;;;28.40;39.20;;;;;;5028417;28;20310;-39
2021/12/22 10:02:47;;;;;;;0.60;0.40;;;28.40;39.20;;;;;;5029936;28;20214;-49
2021/12/22 10:05:18;;;;;;;0.45;0.30;;;28.30;39.20;;;;;;5041322;28;20318;-53
2021/12/22 10:08:05;;;;;;;0.85;0.50;;;28.30;39.20;;;;;;5037944;28;20307;-54
2021/12/22 10:10:36;;;;;;;0.65;0.40;;;28.30;39.30;;;;;;5032260;28;20950;-59
2021/12/22 10:13:14;;;;;;;0.85;0.52;;;28.20;39.30;;;;;;5035582;28;20283;-57
2021/12/22 10:15:45;;;;;;;1.00;0.52;;;28.20;39.30;;;;;;5041548;28;20292;-56
2021/12/22 10:18:19;;;;;;;0.98;0.40;;;28.20;39.40;;;;;;5032076;28;20645;-59
2021/12/22 10:20:51;;;;;;;0.43;0.43;;;28.20;39.40;;;;;;5029097;28;20279;-57
2021/12/22 10:23:26;;;;;;;0.77;0.45;;;28.10;39.40;;;;;;5030533;28;20265;-41
2021/12/22 10:25:58;;;;;;;0.50;0.50;;;28.10;39.40;;;;;;5030017;28;20691;-44
2021/12/22 10:28:32;;;;;;;1.75;0.60;;;28.00;39.40;;;;;;5031621;28;20665;-40
2021/12/22 10:31:03;;;;;;;0.82;0.50;;;28.10;39.50;;;;;;5034022;28;20287;-48
2021/12/22 10:33:36;;;;;;;0.38;0.30;;;28.00;39.40;;;;;;5031067;28;20243;-40
2021/12/22 10:36:11;;;;;;;0.57;0.50;;;28.00;39.50;;;;;;5030712;28;20864;-39
2021/12/22 10:38:42;;;;;;;0.90;0.40;;;27.90;39.50;;;;;;5030077;28;20299;-39
2021/12/22 10:41:13;;;;;;;0.40;0.40;;;28.00;39.60;;;;;;5034897;28;20278;-46
2021/12/22 10:43:47;;;;;;;1.77;0.50;;;27.90;39.60;;;;;;5042372;28;20693;-39
2021/12/22 10:46:26;;;;;;;1.77;0.50;;;27.90;39.70;;;;;;5035427;28;20286;-42
2021/12/22 10:49:17;;;;;;;1.02;0.60;;;27.80;39.70;;;;;;5030627;28;20231;-40
2021/12/22 10:51:49;;;;;;;0.73;0.30;;;27.80;39.70;;;;;;5030776;28;20196;-40
2021/12/22 10:54:20;;;;;;;0.70;0.50;;;27.80;39.70;;;;;;5028789;28;20216;-43
2021/12/22 10:56:51;;;;;;;0.88;0.70;;;27.80;39.80;;;;;;5033267;28;20311;-59
2021/12/22 10:59:24;;;;;;;0.80;0.60;;;27.80;39.80;;;;;;5030027;28;20323;-58
2021/12/22 11:02:07;;;;;;;0.50;0.50;;;27.70;39.80;;;;;;5029550;28;20287;-57
2021/12/22 11:04:44;;;;;;;1.17;0.50;;;27.70;39.90;;;;;;5029186;28;20633;-60
2021/12/22 11:07:22;;;;;;;0.43;0.40;;;27.70;40.00;;;;;;5029530;28;20302;-61
2021/12/22 11:09:53;;;;;;;0.40;0.40;;;27.60;39.90;;;;;;5024989;28;20197;-60
2021/12/22 11:12:37;;;;;;;0.40;0.40;;;27.60;39.90;;;;;;5018548;28;20286;-59
2021/12/22 11:15:25;;;;;;;1.35;0.50;;;27.60;40.00;;;;;;5029416;28;20279;-60
2021/12/22 11:17:55;;;;;;;0.73;0.40;;;27.50;40.00;;;;;;5027864;28;20223;-52
2021/12/22 11:20:27;;;;;;;0.40;0.40;;;27.60;40.10;;;;;;5028469;28;20687;-60
2021/12/22 11:23:00;;;;;;;0.95;0.60;;;27.50;40.00;;;;;;5029325;28;20664;-57
2021/12/22 11:25:31;;;;;;;0.40;0.40;;;27.50;40.20;;;;;;5028655;28;20222;-60
2021/12/22 11:28:02;;;;;;;0.35;0.30;;;27.50;40.20;;;;;;5028277;28;20311;-45
2021/12/22 11:30:34;;;;;;;0.77;0.50;;;27.50;40.20;;;;;;5027900;28;20302;-59
2021/12/22 11:33:05;;;;;;;1.00;0.50;;;27.40;40.10;;;;;;5028294;28;20711;-58
2021/12/22 11:35:39;;;;;;;0.40;0.40;;;27.40;40.10;;;;;;5022151;28;20327;-51
2021/12/22 11:38:10;;;;;;;0.60;0.40;;;27.40;40.20;;;;;;5014185;28;20593;-60
2021/12/22 11:40:44;;;;;;;1.08;0.60;;;27.40;40.20;;;;;;5015247;28;20227;-60
2021/12/22 11:43:15;;;;;;;0.50;0.45;;;27.30;40.30;;;;;;5028570;28;21779;-60
2021/12/22 11:45:50;;;;;;;1.15;0.65;;;27.30;40.30;;;;;;5014226;28;20282;-56
2021/12/22 11:48:20;;;;;;;1.02;0.60;;;27.30;40.30;;;;;;5028854;28;20587;-59
2021/12/22 11:50:51;;;;;;;1.60;0.68;;;27.30;40.30;;;;;;5013093;28;20284;-60
2021/12/22 11:53:22;;;;;;;2.13;0.57;;;27.30;40.40;;;;;;5027326;28;20659;-60
2021/12/22 11:55:55;;;;;;;0.65;0.55;;;27.20;40.40;;;;;;5026693;28;20280;-60
2021/12/22 11:58:28;;;;;;;0.73;0.50;;;27.20;40.40;;;;;;5026099;28;20208;-59
2021/12/22 12:01:10;;;;;;;1.10;0.60;;;27.20;40.40;;;;;;5027351;28;20287;-60
2021/12/22 12:03:44;;;;;;;1.60;0.80;;;27.20;40.40;;;;;;5022105;28;20258;-58
2021/12/22 12:06:16;;;;;;;1.75;0.80;;;27.20;40.40;;;;;;5017486;28;20193;-57
2021/12/22 12:08:50;;;;;;;0.93;0.70;;;27.10;40.40;;;;;;5028132;28;20224;-60
2021/12/22 12:11:45;;;;;;;2.80;0.90;;;27.10;40.50;;;;;;5019079;28;20279;-57
2021/12/22 12:14:57;;;;;;;1.15;0.60;;;27.10;40.50;;;;;;5014977;28;20204;-59
2021/12/22 12:23:29;;;;;;;1.48;0.88;;;27.00;40.50;;;;;;4954940;28;20478;-60
2021/12/22 12:26:02;;;;;;;2.17;0.82;;;27.00;40.60;;;;;;5018137;28;20227;-54
2021/12/22 12:28:33;;;;;;;1.52;1.02;;;26.90;40.60;;;;;;5027225;28;20312;-55
2021/12/22 12:31:04;;;;;;;1.00;0.70;;;26.90;40.60;;;;;;5012777;28;20230;-51
2021/12/22 12:33:44;;;;;;;2.63;0.93;;;26.90;40.70;;;;;;5029212;28;20280;-58
2021/12/22 12:36:16;;;;;;;0.98;0.80;;;26.90;40.70;;;;;;5027983;28;20200;-59
2021/12/22 12:38:50;;;;;;;1.25;0.80;;;26.90;40.80;;;;;;5025850;28;20767;-56
2021/12/22 12:41:27;;;;;;;0.88;0.70;;;26.80;40.70;;;;;;5026149;28;20240;-59
2021/12/22 12:44:03;;;;;;;1.17;0.88;;;26.80;40.70;;;;;;5027060;28;20208;-59
2021/12/22 12:46:42;;;;;;;1.40;0.82;;;26.80;40.70;;;;;;5025003;28;20287;-60
2021/12/22 12:49:43;;;;;;;1.00;0.82;;;26.70;40.70;;;;;;5027361;28;20251;-60
2021/12/22 12:52:28;;;;;;;1.35;0.95;;;26.70;40.80;;;;;;5019668;28;20254;-60
2021/12/22 12:55:16;;;;;;;1.95;0.90;;;26.70;40.80;;;;;;5021766;28;20663;-56
2021/12/22 12:57:47;;;;;;;1.15;0.82;;;26.70;40.80;;;;;;5019459;28;20323;-58
2021/12/22 13:00:26;;;;;;;2.05;1.00;;;26.70;40.80;;;;;;5015447;28;20279;-61
2021/12/22 13:03:09;;;;;;;2.13;0.88;;;26.60;41.40;;;;;;5013737;28;20284;-60
2021/12/22 13:05:44;;;;;;;1.05;0.80;;;26.60;40.80;;;;;;5023734;28;20200;-59
2021/12/22 13:08:14;;;;;;;1.25;0.90;;;26.60;40.90;;;;;;5013001;28;20392;-60
2021/12/22 13:10:51;;;;;;;1.45;0.90;;;26.60;41.00;;;;;;5017122;28;20278;-60
2021/12/22 13:13:40;;;;;;;1.55;0.90;;;26.60;41.00;;;;;;5028146;28;20199;-60
2021/12/22 13:16:18;;;;;;;1.33;0.70;;;26.50;41.00;;;;;;5013811;28;20211;-55
2021/12/22 13:18:49;;;;;;;0.98;0.80;;;26.50;41.00;;;;;;5013846;28;20307;-61
2021/12/22 13:21:29;;;;;;;1.63;0.95;;;26.50;41.10;;;;;;5023439;28;20315;-60
2021/12/22 13:23:59;;;;;;;1.30;0.90;;;26.40;41.10;;;;;;5013631;28;20288;-57
2021/12/22 13:26:30;;;;;;;1.95;1.10;;;26.40;41.10;;;;;;5023661;28;20245;-53
2021/12/22 13:29:00;;;;;;;1.25;0.68;;;26.40;41.20;;;;;;5024197;28;20308;-61
2021/12/22 13:31:30;;;;;;;1.35;0.95;;;26.40;41.20;;;;;;5027221;28;20287;-61
2021/12/22 13:34:03;;;;;;;1.15;0.68;;;26.40;41.20;;;;;;5027045;28;20284;-60
2021/12/22 13:36:36;;;;;;;2.10;0.80;;;26.40;41.20;;;;;;5023977;28;20197;-60
2021/12/22 13:39:06;;;;;;;1.60;1.10;;;26.30;41.20;;;;;;5032157;28;20228;-55
2021/12/22 13:41:36;;;;;;;1.13;0.93;;;26.30;41.20;;;;;;5032028;28;20282;-61